Terminal Aerodrome Forecast
Issued by NWS Sterling, VA

Home | Current Version | Previous Version | Text Only | Print | Product List | Glossary On
Versions: 1 2 3 4 5 6 7 8 9 10 11 12 13 14 15 16 17 18 19 20 21 22 23 24 25
000
FTUS41 KLWX 011728
TAFDCA
TAF
KDCA 011728Z 0118/0218 21018G32KT P6SM SHRA BKN050
      TEMPO 0118/0120 VRB40KT 2SM SHRA BKN040
     FM020300 24018G30KT P6SM -SHRA OVC040
     FM020600 27023G38KT P6SM SCT250
     FM021500 30019G28KT P6SM FEW250=

USA.gov is the U.S. government's official web portal to all federal, state and local government web resources and services.